sensor_id;sensor_type;location;lat;lon;timestamp;P1;durP1;ratioP1;P2;durP2;ratioP2
25950;SDS011;13748;52.240;6.002;2022-07-23T00:00:27;9.50;;;5.03;;
25950;SDS011;13748;52.240;6.002;2022-07-23T00:03:03;7.37;;;5.40;;
25950;SDS011;13748;52.240;6.002;2022-07-23T00:05:30;8.03;;;5.00;;
25950;SDS011;13748;52.240;6.002;2022-07-23T00:08:00;6.47;;;5.07;;
25950;SDS011;13748;52.240;6.002;2022-07-23T00:10:26;11.23;;;5.13;;
25950;SDS011;13748;52.240;6.002;2022-07-23T00:12:53;5.43;;;4.50;;
25950;SDS011;13748;52.240;6.002;2022-07-23T00:15:20;9.73;;;5.00;;
25950;SDS011;13748;52.240;6.002;2022-07-23T00:17:47;6.17;;;4.63;;
25950;SDS011;13748;52.240;6.002;2022-07-23T00:20:14;7.73;;;4.90;;
25950;SDS011;13748;52.240;6.002;2022-07-23T00:22:51;8.03;;;4.80;;
25950;SDS011;13748;52.240;6.002;2022-07-23T00:25:21;5.90;;;4.60;;
25950;SDS011;13748;52.240;6.002;2022-07-23T00:27:54;8.67;;;4.53;;
25950;SDS011;13748;52.240;6.002;2022-07-23T00:30:21;6.73;;;4.97;;
25950;SDS011;13748;52.240;6.002;2022-07-23T00:32:50;6.50;;;4.57;;
25950;SDS011;13748;52.240;6.002;2022-07-23T00:35:22;9.00;;;4.77;;
25950;SDS011;13748;52.240;6.002;2022-07-23T00:37:51;6.93;;;4.90;;
25950;SDS011;13748;52.240;6.002;2022-07-23T00:40:18;9.13;;;5.03;;
25950;SDS011;13748;52.240;6.002;2022-07-23T00:42:46;8.23;;;5.10;;
25950;SDS011;13748;52.240;6.002;2022-07-23T00:45:13;5.93;;;4.70;;
25950;SDS011;13748;52.240;6.002;2022-07-23T00:47:40;5.80;;;4.03;;
25950;SDS011;13748;52.240;6.002;2022-07-23T00:50:10;6.97;;;5.43;;
25950;SDS011;13748;52.240;6.002;2022-07-23T00:52:37;8.87;;;5.37;;
25950;SDS011;13748;52.240;6.002;2022-07-23T00:55:05;6.57;;;4.43;;
25950;SDS011;13748;52.240;6.002;2022-07-23T00:57:33;9.10;;;4.80;;
25950;SDS011;13748;52.240;6.002;2022-07-23T01:00:01;7.63;;;4.67;;
25950;SDS011;13748;52.240;6.002;2022-07-23T01:02:28;9.73;;;4.90;;
25950;SDS011;13748;52.240;6.002;2022-07-23T01:04:55;6.63;;;4.87;;
25950;SDS011;13748;52.240;6.002;2022-07-23T01:07:22;6.70;;;5.03;;
25950;SDS011;13748;52.240;6.002;2022-07-23T01:09:50;9.87;;;5.40;;
25950;SDS011;13748;52.240;6.002;2022-07-23T01:12:18;6.17;;;5.20;;
25950;SDS011;13748;52.240;6.002;2022-07-23T01:14:45;7.50;;;5.03;;
25950;SDS011;13748;52.240;6.002;2022-07-23T01:17:19;5.90;;;4.80;;
25950;SDS011;13748;52.240;6.002;2022-07-23T01:19:49;7.87;;;5.07;;
25950;SDS011;13748;52.240;6.002;2022-07-23T01:22:18;6.33;;;5.10;;
25950;SDS011;13748;52.240;6.002;2022-07-23T01:24:46;6.53;;;5.10;;
25950;SDS011;13748;52.240;6.002;2022-07-23T01:27:13;7.67;;;5.40;;
25950;SDS011;13748;52.240;6.002;2022-07-23T01:29:40;9.87;;;5.47;;
25950;SDS011;13748;52.240;6.002;2022-07-23T01:32:07;7.07;;;5.10;;
25950;SDS011;13748;52.240;6.002;2022-07-23T01:34:37;8.27;;;4.73;;
25950;SDS011;13748;52.240;6.002;2022-07-23T01:37:05;8.50;;;4.97;;
25950;SDS011;13748;52.240;6.002;2022-07-23T01:39:32;10.67;;;5.13;;
25950;SDS011;13748;52.240;6.002;2022-07-23T01:41:59;7.20;;;4.90;;
25950;SDS011;13748;52.240;6.002;2022-07-23T01:44:26;7.50;;;5.33;;
25950;SDS011;13748;52.240;6.002;2022-07-23T01:46:53;6.20;;;4.70;;
25950;SDS011;13748;52.240;6.002;2022-07-23T01:49:21;9.63;;;4.93;;
25950;SDS011;13748;52.240;6.002;2022-07-23T01:51:48;6.70;;;4.60;;
25950;SDS011;13748;52.240;6.002;2022-07-23T01:54:27;10.47;;;5.80;;
25950;SDS011;13748;52.240;6.002;2022-07-23T01:56:56;8.03;;;5.60;;
25950;SDS011;13748;52.240;6.002;2022-07-23T01:59:24;6.40;;;5.40;;
25950;SDS011;13748;52.240;6.002;2022-07-23T02:01:52;8.30;;;5.23;;
25950;SDS011;13748;52.240;6.002;2022-07-23T02:04:20;6.87;;;4.67;;
25950;SDS011;13748;52.240;6.002;2022-07-23T02:06:48;7.07;;;4.93;;
25950;SDS011;13748;52.240;6.002;2022-07-23T02:09:15;7.23;;;5.80;;
25950;SDS011;13748;52.240;6.002;2022-07-23T02:11:43;9.57;;;5.30;;
25950;SDS011;13748;52.240;6.002;2022-07-23T02:14:10;11.03;;;5.30;;
25950;SDS011;13748;52.240;6.002;2022-07-23T02:16:37;9.33;;;5.50;;
25950;SDS011;13748;52.240;6.002;2022-07-23T02:19:04;10.67;;;5.07;;
25950;SDS011;13748;52.240;6.002;2022-07-23T02:21:31;8.47;;;5.20;;
25950;SDS011;13748;52.240;6.002;2022-07-23T02:23:58;6.67;;;5.27;;
25950;SDS011;13748;52.240;6.002;2022-07-23T02:26:25;8.53;;;5.30;;
25950;SDS011;13748;52.240;6.002;2022-07-23T02:28:52;7.80;;;4.93;;
25950;SDS011;13748;52.240;6.002;2022-07-23T02:31:22;7.37;;;5.03;;
25950;SDS011;13748;52.240;6.002;2022-07-23T02:33:49;7.37;;;5.03;;
25950;SDS011;13748;52.240;6.002;2022-07-23T02:36:16;10.13;;;5.20;;
25950;SDS011;13748;52.240;6.002;2022-07-23T02:38:43;8.97;;;6.03;;
25950;SDS011;13748;52.240;6.002;2022-07-23T02:41:10;8.17;;;5.00;;
25950;SDS011;13748;52.240;6.002;2022-07-23T02:43:36;8.73;;;4.87;;
25950;SDS011;13748;52.240;6.002;2022-07-23T02:46:04;8.63;;;5.67;;
25950;SDS011;13748;52.240;6.002;2022-07-23T02:48:31;7.17;;;5.10;;
25950;SDS011;13748;52.240;6.002;2022-07-23T02:51:00;7.47;;;5.50;;
25950;SDS011;13748;52.240;6.002;2022-07-23T02:53:27;6.57;;;4.47;;
25950;SDS011;13748;52.240;6.002;2022-07-23T02:55:54;8.90;;;5.00;;
25950;SDS011;13748;52.240;6.002;2022-07-23T02:58:26;6.57;;;5.00;;
25950;SDS011;13748;52.240;6.002;2022-07-23T03:00:53;7.47;;;4.30;;
25950;SDS011;13748;52.240;6.002;2022-07-23T03:03:20;5.93;;;4.40;;
25950;SDS011;13748;52.240;6.002;2022-07-23T03:05:52;7.20;;;5.00;;
25950;SDS011;13748;52.240;6.002;2022-07-23T03:08:19;7.10;;;5.30;;
25950;SDS011;13748;52.240;6.002;2022-07-23T03:10:46;7.57;;;4.70;;
25950;SDS011;13748;52.240;6.002;2022-07-23T03:13:13;7.10;;;4.73;;
25950;SDS011;13748;52.240;6.002;2022-07-23T03:15:40;6.27;;;4.23;;
25950;SDS011;13748;52.240;6.002;2022-07-23T03:18:07;7.37;;;4.57;;
25950;SDS011;13748;52.240;6.002;2022-07-23T03:20:34;6.13;;;4.20;;
25950;SDS011;13748;52.240;6.002;2022-07-23T03:23:01;5.43;;;4.50;;
25950;SDS011;13748;52.240;6.002;2022-07-23T03:25:31;5.63;;;4.50;;
25950;SDS011;13748;52.240;6.002;2022-07-23T03:27:58;6.97;;;5.33;;
25950;SDS011;13748;52.240;6.002;2022-07-23T03:30:25;5.97;;;4.80;;
25950;SDS011;13748;52.240;6.002;2022-07-23T03:32:52;6.27;;;4.33;;
25950;SDS011;13748;52.240;6.002;2022-07-23T03:35:19;5.50;;;4.40;;
25950;SDS011;13748;52.240;6.002;2022-07-23T03:37:46;7.13;;;5.43;;
25950;SDS011;13748;52.240;6.002;2022-07-23T03:40:13;6.33;;;4.87;;
25950;SDS011;13748;52.240;6.002;2022-07-23T03:42:40;7.07;;;5.17;;
25950;SDS011;13748;52.240;6.002;2022-07-23T03:45:10;6.07;;;4.20;;
25950;SDS011;13748;52.240;6.002;2022-07-23T03:47:37;6.73;;;4.67;;
25950;SDS011;13748;52.240;6.002;2022-07-23T03:50:05;8.20;;;5.07;;
25950;SDS011;13748;52.240;6.002;2022-07-23T03:52:34;7.80;;;4.67;;
25950;SDS011;13748;52.240;6.002;2022-07-23T03:55:02;8.23;;;5.33;;
25950;SDS011;13748;52.240;6.002;2022-07-23T03:57:41;8.93;;;4.53;;
25950;SDS011;13748;52.240;6.002;2022-07-23T04:00:09;6.03;;;4.73;;
25950;SDS011;13748;52.240;6.002;2022-07-23T04:02:37;7.53;;;4.43;;
25950;SDS011;13748;52.240;6.002;2022-07-23T04:05:05;7.83;;;5.10;;
25950;SDS011;13748;52.240;6.002;2022-07-23T04:07:36;7.23;;;4.53;;
25950;SDS011;13748;52.240;6.002;2022-07-23T04:10:05;6.93;;;5.03;;
25950;SDS011;13748;52.240;6.002;2022-07-23T04:12:32;6.73;;;4.63;;
25950;SDS011;13748;52.240;6.002;2022-07-23T04:14:59;8.63;;;5.37;;
25950;SDS011;13748;52.240;6.002;2022-07-23T04:17:26;9.77;;;5.53;;
25950;SDS011;13748;52.240;6.002;2022-07-23T04:19:53;6.07;;;4.53;;
25950;SDS011;13748;52.240;6.002;2022-07-23T04:22:20;7.00;;;4.50;;
25950;SDS011;13748;52.240;6.002;2022-07-23T04:24:49;7.63;;;5.17;;
25950;SDS011;13748;52.240;6.002;2022-07-23T04:27:16;7.43;;;5.07;;
25950;SDS011;13748;52.240;6.002;2022-07-23T04:29:43;6.30;;;5.13;;
25950;SDS011;13748;52.240;6.002;2022-07-23T04:32:13;7.17;;;4.97;;
25950;SDS011;13748;52.240;6.002;2022-07-23T04:34:39;7.47;;;5.13;;
25950;SDS011;13748;52.240;6.002;2022-07-23T04:37:06;11.37;;;5.83;;
25950;SDS011;13748;52.240;6.002;2022-07-23T04:39:33;7.53;;;5.07;;
25950;SDS011;13748;52.240;6.002;2022-07-23T04:42:00;6.77;;;5.60;;
25950;SDS011;13748;52.240;6.002;2022-07-23T04:44:27;7.83;;;5.13;;
25950;SDS011;13748;52.240;6.002;2022-07-23T04:46:54;8.50;;;5.57;;
25950;SDS011;13748;52.240;6.002;2022-07-23T04:49:24;8.63;;;4.93;;
25950;SDS011;13748;52.240;6.002;2022-07-23T04:51:54;9.07;;;5.33;;
25950;SDS011;13748;52.240;6.002;2022-07-23T04:54:21;6.73;;;5.20;;
25950;SDS011;13748;52.240;6.002;2022-07-23T04:56:48;7.93;;;5.10;;
25950;SDS011;13748;52.240;6.002;2022-07-23T04:59:15;6.27;;;5.17;;
25950;SDS011;13748;52.240;6.002;2022-07-23T05:01:42;6.37;;;5.10;;
25950;SDS011;13748;52.240;6.002;2022-07-23T05:04:09;8.17;;;5.27;;
25950;SDS011;13748;52.240;6.002;2022-07-23T05:06:36;7.33;;;4.70;;
25950;SDS011;13748;52.240;6.002;2022-07-23T05:09:03;7.70;;;4.73;;
25950;SDS011;13748;52.240;6.002;2022-07-23T05:11:30;9.07;;;4.70;;
25950;SDS011;13748;52.240;6.002;2022-07-23T05:14:02;9.73;;;6.20;;
25950;SDS011;13748;52.240;6.002;2022-07-23T05:16:29;10.10;;;5.10;;
25950;SDS011;13748;52.240;6.002;2022-07-23T05:18:58;6.83;;;4.80;;
25950;SDS011;13748;52.240;6.002;2022-07-23T05:21:25;8.67;;;5.17;;
25950;SDS011;13748;52.240;6.002;2022-07-23T05:23:52;7.97;;;5.40;;
25950;SDS011;13748;52.240;6.002;2022-07-23T05:26:19;8.23;;;4.90;;
25950;SDS011;13748;52.240;6.002;2022-07-23T05:28:47;8.00;;;5.17;;
25950;SDS011;13748;52.240;6.002;2022-07-23T05:31:16;5.87;;;4.83;;
25950;SDS011;13748;52.240;6.002;2022-07-23T05:33:43;6.77;;;5.10;;
25950;SDS011;13748;52.240;6.002;2022-07-23T05:36:10;9.37;;;5.40;;
25950;SDS011;13748;52.240;6.002;2022-07-23T05:38:40;10.30;;;5.63;;
25950;SDS011;13748;52.240;6.002;2022-07-23T05:41:09;9.10;;;5.27;;
25950;SDS011;13748;52.240;6.002;2022-07-23T05:43:42;10.37;;;5.90;;
25950;SDS011;13748;52.240;6.002;2022-07-23T05:46:11;7.17;;;5.03;;
25950;SDS011;13748;52.240;6.002;2022-07-23T05:48:41;7.60;;;5.15;;
25950;SDS011;13748;52.240;6.002;2022-07-23T05:51:13;5.78;;;4.40;;
25950;SDS011;13748;52.240;6.002;2022-07-23T05:53:46;9.13;;;4.57;;
25950;SDS011;13748;52.240;6.002;2022-07-23T05:56:14;39.90;;;5.97;;
25950;SDS011;13748;52.240;6.002;2022-07-23T05:58:42;4.57;;;4.10;;
25950;SDS011;13748;52.240;6.002;2022-07-23T06:01:21;5.45;;;4.15;;
25950;SDS011;13748;52.240;6.002;2022-07-23T06:03:48;5.55;;;3.88;;
25950;SDS011;13748;52.240;6.002;2022-07-23T06:06:16;6.15;;;3.63;;
25950;SDS011;13748;52.240;6.002;2022-07-23T06:08:45;4.68;;;3.63;;
25950;SDS011;13748;52.240;6.002;2022-07-23T06:11:12;4.28;;;3.70;;
25950;SDS011;13748;52.240;6.002;2022-07-23T06:13:42;4.38;;;2.97;;
25950;SDS011;13748;52.240;6.002;2022-07-23T06:16:12;4.80;;;2.92;;
25950;SDS011;13748;52.240;6.002;2022-07-23T06:18:41;5.15;;;2.72;;
25950;SDS011;13748;52.240;6.002;2022-07-23T06:21:08;3.55;;;2.63;;
25950;SDS011;13748;52.240;6.002;2022-07-23T06:23:55;7.35;;;3.05;;
25950;SDS011;13748;52.240;6.002;2022-07-23T06:26:27;4.28;;;2.50;;
25950;SDS011;13748;52.240;6.002;2022-07-23T06:28:59;4.53;;;1.88;;
25950;SDS011;13748;52.240;6.002;2022-07-23T06:31:30;4.57;;;2.75;;
25950;SDS011;13748;52.240;6.002;2022-07-23T06:33:59;2.53;;;1.70;;
25950;SDS011;13748;52.240;6.002;2022-07-23T06:36:26;2.30;;;2.00;;
25950;SDS011;13748;52.240;6.002;2022-07-23T06:38:54;2.60;;;1.90;;
25950;SDS011;13748;52.240;6.002;2022-07-23T06:41:23;3.58;;;1.80;;
25950;SDS011;13748;52.240;6.002;2022-07-23T06:43:56;3.92;;;2.05;;
25950;SDS011;13748;52.240;6.002;2022-07-23T06:46:26;3.25;;;1.70;;
25950;SDS011;13748;52.240;6.002;2022-07-23T06:48:54;2.65;;;1.48;;
25950;SDS011;13748;52.240;6.002;2022-07-23T06:51:21;2.95;;;1.60;;
25950;SDS011;13748;52.240;6.002;2022-07-23T06:53:48;3.53;;;1.95;;
25950;SDS011;13748;52.240;6.002;2022-07-23T06:56:32;5.65;;;2.13;;
25950;SDS011;13748;52.240;6.002;2022-07-23T07:02:14;2.25;;;1.50;;
25950;SDS011;13748;52.240;6.002;2022-07-23T07:04:41;3.03;;;1.50;;
25950;SDS011;13748;52.240;6.002;2022-07-23T07:07:12;2.38;;;1.40;;
25950;SDS011;13748;52.240;6.002;2022-07-23T07:09:42;2.35;;;1.00;;
25950;SDS011;13748;52.240;6.002;2022-07-23T07:12:11;1.70;;;1.38;;
25950;SDS011;13748;52.240;6.002;2022-07-23T07:14:38;3.15;;;1.30;;
25950;SDS011;13748;52.240;6.002;2022-07-23T07:17:07;3.75;;;1.50;;
25950;SDS011;13748;52.240;6.002;2022-07-23T07:19:34;2.78;;;1.70;;
25950;SDS011;13748;52.240;6.002;2022-07-23T07:22:01;2.75;;;1.92;;
25950;SDS011;13748;52.240;6.002;2022-07-23T07:24:30;2.42;;;1.30;;
25950;SDS011;13748;52.240;6.002;2022-07-23T07:27:03;3.45;;;1.52;;
25950;SDS011;13748;52.240;6.002;2022-07-23T07:29:30;2.90;;;1.55;;
25950;SDS011;13748;52.240;6.002;2022-07-23T07:31:57;2.95;;;1.60;;
25950;SDS011;13748;52.240;6.002;2022-07-23T07:34:26;3.60;;;1.80;;
25950;SDS011;13748;52.240;6.002;2022-07-23T07:36:53;4.30;;;2.08;;
25950;SDS011;13748;52.240;6.002;2022-07-23T07:39:20;4.72;;;1.63;;
25950;SDS011;13748;52.240;6.002;2022-07-23T07:41:47;3.17;;;1.90;;
25950;SDS011;13748;52.240;6.002;2022-07-23T07:44:14;2.92;;;1.90;;
25950;SDS011;13748;52.240;6.002;2022-07-23T07:46:44;3.78;;;1.80;;
25950;SDS011;13748;52.240;6.002;2022-07-23T07:49:12;2.30;;;1.45;;
25950;SDS011;13748;52.240;6.002;2022-07-23T07:51:59;1.98;;;1.40;;
25950;SDS011;13748;52.240;6.002;2022-07-23T07:54:26;4.95;;;1.65;;
25950;SDS011;13748;52.240;6.002;2022-07-23T07:56:53;2.38;;;1.50;;
25950;SDS011;13748;52.240;6.002;2022-07-23T07:59:20;2.58;;;1.30;;
25950;SDS011;13748;52.240;6.002;2022-07-23T08:01:48;4.75;;;1.90;;
25950;SDS011;13748;52.240;6.002;2022-07-23T08:04:15;2.45;;;1.55;;
25950;SDS011;13748;52.240;6.002;2022-07-23T08:06:42;2.45;;;1.45;;
25950;SDS011;13748;52.240;6.002;2022-07-23T08:09:12;3.08;;;1.50;;
25950;SDS011;13748;52.240;6.002;2022-07-23T08:11:39;3.35;;;1.60;;
25950;SDS011;13748;52.240;6.002;2022-07-23T08:14:06;5.38;;;1.55;;
25950;SDS011;13748;52.240;6.002;2022-07-23T08:16:34;5.85;;;2.08;;
25950;SDS011;13748;52.240;6.002;2022-07-23T08:19:21;5.70;;;1.55;;
25950;SDS011;13748;52.240;6.002;2022-07-23T08:21:49;3.13;;;1.40;;
25950;SDS011;13748;52.240;6.002;2022-07-23T08:24:18;2.22;;;1.52;;
25950;SDS011;13748;52.240;6.002;2022-07-23T08:26:49;3.78;;;1.63;;
25950;SDS011;13748;52.240;6.002;2022-07-23T08:29:16;4.93;;;1.88;;
25950;SDS011;13748;52.240;6.002;2022-07-23T08:31:52;3.70;;;1.80;;
25950;SDS011;13748;52.240;6.002;2022-07-23T08:34:19;3.15;;;1.80;;
25950;SDS011;13748;52.240;6.002;2022-07-23T08:36:55;3.33;;;1.60;;
25950;SDS011;13748;52.240;6.002;2022-07-23T08:39:22;3.65;;;1.77;;
25950;SDS011;13748;52.240;6.002;2022-07-23T08:42:14;2.33;;;1.45;;
25950;SDS011;13748;52.240;6.002;2022-07-23T08:44:42;3.55;;;1.55;;
25950;SDS011;13748;52.240;6.002;2022-07-23T08:47:12;4.60;;;1.88;;
25950;SDS011;13748;52.240;6.002;2022-07-23T08:49:42;3.10;;;1.25;;
25950;SDS011;13748;52.240;6.002;2022-07-23T08:52:12;3.05;;;1.30;;
25950;SDS011;13748;52.240;6.002;2022-07-23T08:54:41;2.88;;;1.33;;
25950;SDS011;13748;52.240;6.002;2022-07-23T08:57:08;2.47;;;1.25;;
25950;SDS011;13748;52.240;6.002;2022-07-23T08:59:40;3.85;;;1.33;;
25950;SDS011;13748;52.240;6.002;2022-07-23T09:02:07;2.38;;;1.30;;
25950;SDS011;13748;52.240;6.002;2022-07-23T09:04:35;2.72;;;1.10;;
25950;SDS011;13748;52.240;6.002;2022-07-23T09:07:03;5.68;;;1.30;;
25950;SDS011;13748;52.240;6.002;2022-07-23T09:10:15;2.25;;;1.00;;
25950;SDS011;13748;52.240;6.002;2022-07-23T09:12:56;2.65;;;1.20;;
25950;SDS011;13748;52.240;6.002;2022-07-23T09:15:23;1.75;;;1.20;;
25950;SDS011;13748;52.240;6.002;2022-07-23T09:17:50;1.70;;;1.10;;
25950;SDS011;13748;52.240;6.002;2022-07-23T09:20:19;2.00;;;1.00;;
25950;SDS011;13748;52.240;6.002;2022-07-23T09:22:47;3.45;;;1.17;;
25950;SDS011;13748;52.240;6.002;2022-07-23T09:25:16;3.63;;;1.20;;
25950;SDS011;13748;52.240;6.002;2022-07-23T09:28:06;1.80;;;1.10;;
25950;SDS011;13748;52.240;6.002;2022-07-23T09:30:33;1.08;;;1.00;;
25950;SDS011;13748;52.240;6.002;2022-07-23T09:33:08;4.00;;;1.50;;
25950;SDS011;13748;52.240;6.002;2022-07-23T09:35:51;2.63;;;1.35;;
25950;SDS011;13748;52.240;6.002;2022-07-23T09:38:19;2.60;;;1.33;;
25950;SDS011;13748;52.240;6.002;2022-07-23T09:41:05;2.75;;;1.25;;
25950;SDS011;13748;52.240;6.002;2022-07-23T09:43:35;3.70;;;1.20;;
25950;SDS011;13748;52.240;6.002;2022-07-23T09:48:55;1.60;;;1.15;;
25950;SDS011;13748;52.240;6.002;2022-07-23T09:51:23;4.18;;;1.23;;
25950;SDS011;13748;52.240;6.002;2022-07-23T09:53:53;1.52;;;1.30;;
25950;SDS011;13748;52.240;6.002;2022-07-23T09:56:20;2.35;;;1.20;;
25950;SDS011;13748;52.240;6.002;2022-07-23T09:58:53;1.67;;;1.20;;
25950;SDS011;13748;52.240;6.002;2022-07-23T10:01:35;2.97;;;1.35;;
25950;SDS011;13748;52.240;6.002;2022-07-23T10:04:02;2.45;;;1.45;;
25950;SDS011;13748;52.240;6.002;2022-07-23T10:06:31;3.97;;;1.40;;
25950;SDS011;13748;52.240;6.002;2022-07-23T10:08:58;3.65;;;1.58;;
25950;SDS011;13748;52.240;6.002;2022-07-23T10:11:26;3.25;;;1.50;;
25950;SDS011;13748;52.240;6.002;2022-07-23T10:13:55;13.95;;;1.90;;
25950;SDS011;13748;52.240;6.002;2022-07-23T10:16:24;1.88;;;1.40;;
25950;SDS011;13748;52.240;6.002;2022-07-23T10:19:05;2.00;;;1.42;;
25950;SDS011;13748;52.240;6.002;2022-07-23T10:21:37;2.45;;;1.30;;
25950;SDS011;13748;52.240;6.002;2022-07-23T10:24:28;2.60;;;1.45;;
25950;SDS011;13748;52.240;6.002;2022-07-23T10:27:38;3.83;;;2.00;;
25950;SDS011;13748;52.240;6.002;2022-07-23T10:30:26;2.70;;;1.67;;
25950;SDS011;13748;52.240;6.002;2022-07-23T10:33:15;3.58;;;1.83;;
25950;SDS011;13748;52.240;6.002;2022-07-23T10:36:09;3.63;;;1.40;;
25950;SDS011;13748;52.240;6.002;2022-07-23T10:39:08;1.80;;;1.60;;
25950;SDS011;13748;52.240;6.002;2022-07-23T10:41:44;2.10;;;1.55;;
25950;SDS011;13748;52.240;6.002;2022-07-23T10:44:12;3.95;;;1.52;;
25950;SDS011;13748;52.240;6.002;2022-07-23T10:49:49;5.20;;;1.90;;
25950;SDS011;13748;52.240;6.002;2022-07-23T10:54:49;2.60;;;1.73;;
25950;SDS011;13748;52.240;6.002;2022-07-23T10:57:20;4.68;;;1.75;;
25950;SDS011;13748;52.240;6.002;2022-07-23T11:02:35;3.53;;;1.80;;
25950;SDS011;13748;52.240;6.002;2022-07-23T11:05:15;3.53;;;1.90;;
25950;SDS011;13748;52.240;6.002;2022-07-23T11:10:34;3.65;;;1.70;;
25950;SDS011;13748;52.240;6.002;2022-07-23T11:23:59;2.83;;;1.98;;
25950;SDS011;13748;52.240;6.002;2022-07-23T11:26:52;4.25;;;1.88;;
25950;SDS011;13748;52.240;6.002;2022-07-23T11:32:00;2.35;;;1.70;;
25950;SDS011;13748;52.240;6.002;2022-07-23T11:37:10;3.08;;;1.63;;
25950;SDS011;13748;52.240;6.002;2022-07-23T11:39:55;3.00;;;1.75;;
25950;SDS011;13748;52.240;6.002;2022-07-23T11:42:23;3.30;;;1.80;;
25950;SDS011;13748;52.240;6.002;2022-07-23T11:44:56;2.30;;;1.60;;
25950;SDS011;13748;52.240;6.002;2022-07-23T11:47:24;2.85;;;1.70;;
25950;SDS011;13748;52.240;6.002;2022-07-23T11:49:56;2.40;;;1.85;;
25950;SDS011;13748;52.240;6.002;2022-07-23T11:52:25;2.08;;;1.60;;
25950;SDS011;13748;52.240;6.002;2022-07-23T11:54:53;2.38;;;1.60;;
25950;SDS011;13748;52.240;6.002;2022-07-23T11:57:29;2.13;;;1.73;;
25950;SDS011;13748;52.240;6.002;2022-07-23T12:00:17;2.95;;;1.70;;
25950;SDS011;13748;52.240;6.002;2022-07-23T12:02:53;2.80;;;1.90;;
25950;SDS011;13748;52.240;6.002;2022-07-23T12:05:29;2.80;;;1.85;;
25950;SDS011;13748;52.240;6.002;2022-07-23T12:07:58;10.98;;;2.00;;
25950;SDS011;13748;52.240;6.002;2022-07-23T12:10:37;1.52;;;1.42;;
25950;SDS011;13748;52.240;6.002;2022-07-23T12:13:07;2.85;;;1.90;;
25950;SDS011;13748;52.240;6.002;2022-07-23T12:15:41;2.38;;;1.75;;
25950;SDS011;13748;52.240;6.002;2022-07-23T12:18:14;3.92;;;1.75;;
25950;SDS011;13748;52.240;6.002;2022-07-23T12:20:43;2.88;;;1.83;;
25950;SDS011;13748;52.240;6.002;2022-07-23T12:23:20;3.08;;;2.03;;
25950;SDS011;13748;52.240;6.002;2022-07-23T12:25:49;1.88;;;1.77;;
25950;SDS011;13748;52.240;6.002;2022-07-23T12:30:51;2.10;;;1.73;;
25950;SDS011;13748;52.240;6.002;2022-07-23T12:33:29;3.05;;;2.22;;
25950;SDS011;13748;52.240;6.002;2022-07-23T12:36:01;2.72;;;1.70;;
25950;SDS011;13748;52.240;6.002;2022-07-23T12:38:43;3.10;;;1.90;;
25950;SDS011;13748;52.240;6.002;2022-07-23T12:41:17;3.13;;;1.70;;
25950;SDS011;13748;52.240;6.002;2022-07-23T12:43:45;2.00;;;1.60;;
25950;SDS011;13748;52.240;6.002;2022-07-23T12:46:14;3.90;;;2.00;;
25950;SDS011;13748;52.240;6.002;2022-07-23T12:51:25;3.88;;;1.80;;
25950;SDS011;13748;52.240;6.002;2022-07-23T12:53:58;3.25;;;1.73;;
25950;SDS011;13748;52.240;6.002;2022-07-23T12:56:32;3.10;;;2.05;;
25950;SDS011;13748;52.240;6.002;2022-07-23T13:01:34;2.10;;;1.88;;
25950;SDS011;13748;52.240;6.002;2022-07-23T13:04:10;1.92;;;1.73;;
25950;SDS011;13748;52.240;6.002;2022-07-23T13:06:44;3.20;;;2.22;;
25950;SDS011;13748;52.240;6.002;2022-07-23T13:09:13;4.28;;;1.80;;
25950;SDS011;13748;52.240;6.002;2022-07-23T13:11:45;5.95;;;1.92;;
25950;SDS011;13748;52.240;6.002;2022-07-23T13:14:14;3.33;;;2.00;;
25950;SDS011;13748;52.240;6.002;2022-07-23T13:16:42;3.83;;;2.20;;
25950;SDS011;13748;52.240;6.002;2022-07-23T13:19:10;2.88;;;2.00;;
25950;SDS011;13748;52.240;6.002;2022-07-23T13:21:38;3.17;;;1.90;;
25950;SDS011;13748;52.240;6.002;2022-07-23T13:24:08;3.55;;;1.77;;
25950;SDS011;13748;52.240;6.002;2022-07-23T13:26:36;2.83;;;1.95;;
25950;SDS011;13748;52.240;6.002;2022-07-23T13:29:04;2.95;;;1.90;;
25950;SDS011;13748;52.240;6.002;2022-07-23T13:31:36;4.57;;;1.90;;
25950;SDS011;13748;52.240;6.002;2022-07-23T13:34:06;3.63;;;2.30;;
25950;SDS011;13748;52.240;6.002;2022-07-23T13:36:33;2.95;;;2.28;;
25950;SDS011;13748;52.240;6.002;2022-07-23T13:39:02;2.22;;;1.98;;
25950;SDS011;13748;52.240;6.002;2022-07-23T13:41:32;3.15;;;2.22;;
25950;SDS011;13748;52.240;6.002;2022-07-23T13:43:59;3.72;;;2.20;;
25950;SDS011;13748;52.240;6.002;2022-07-23T13:46:28;2.53;;;2.10;;
25950;SDS011;13748;52.240;6.002;2022-07-23T13:48:55;3.15;;;1.98;;
25950;SDS011;13748;52.240;6.002;2022-07-23T13:51:21;2.47;;;1.70;;
25950;SDS011;13748;52.240;6.002;2022-07-23T13:53:51;4.35;;;2.83;;
25950;SDS011;13748;52.240;6.002;2022-07-23T13:56:18;3.15;;;2.10;;
25950;SDS011;13748;52.240;6.002;2022-07-23T13:58:46;3.47;;;2.28;;
25950;SDS011;13748;52.240;6.002;2022-07-23T14:01:14;2.20;;;2.00;;
25950;SDS011;13748;52.240;6.002;2022-07-23T14:03:43;3.83;;;2.20;;
25950;SDS011;13748;52.240;6.002;2022-07-23T14:06:11;3.95;;;2.15;;
25950;SDS011;13748;52.240;6.002;2022-07-23T14:08:42;4.43;;;2.10;;
25950;SDS011;13748;52.240;6.002;2022-07-23T14:11:10;2.70;;;2.30;;
25950;SDS011;13748;52.240;6.002;2022-07-23T14:13:37;2.58;;;2.15;;
25950;SDS011;13748;52.240;6.002;2022-07-23T14:16:04;3.55;;;2.40;;
25950;SDS011;13748;52.240;6.002;2022-07-23T14:18:35;2.72;;;2.53;;
25950;SDS011;13748;52.240;6.002;2022-07-23T14:21:03;4.25;;;2.50;;
25950;SDS011;13748;52.240;6.002;2022-07-23T14:23:32;3.42;;;2.58;;
25950;SDS011;13748;52.240;6.002;2022-07-23T14:26:02;2.83;;;2.00;;
25950;SDS011;13748;52.240;6.002;2022-07-23T14:28:31;2.92;;;2.08;;
25950;SDS011;13748;52.240;6.002;2022-07-23T14:31:01;2.10;;;1.90;;
25950;SDS011;13748;52.240;6.002;2022-07-23T14:33:28;4.03;;;2.50;;
25950;SDS011;13748;52.240;6.002;2022-07-23T14:35:56;2.55;;;2.08;;
25950;SDS011;13748;52.240;6.002;2022-07-23T14:38:24;3.28;;;2.13;;
25950;SDS011;13748;52.240;6.002;2022-07-23T14:40:51;2.25;;;2.05;;
25950;SDS011;13748;52.240;6.002;2022-07-23T14:43:19;3.22;;;2.00;;
25950;SDS011;13748;52.240;6.002;2022-07-23T14:45:46;3.63;;;2.42;;
25950;SDS011;13748;52.240;6.002;2022-07-23T14:48:14;2.97;;;2.67;;
25950;SDS011;13748;52.240;6.002;2022-07-23T14:50:41;2.58;;;2.10;;
25950;SDS011;13748;52.240;6.002;2022-07-23T14:53:08;4.40;;;2.67;;
25950;SDS011;13748;52.240;6.002;2022-07-23T14:55:35;3.67;;;2.45;;
25950;SDS011;13748;52.240;6.002;2022-07-23T14:58:02;3.08;;;2.30;;
25950;SDS011;13748;52.240;6.002;2022-07-23T15:00:32;3.50;;;2.10;;
25950;SDS011;13748;52.240;6.002;2022-07-23T15:02:59;3.35;;;2.20;;
25950;SDS011;13748;52.240;6.002;2022-07-23T15:05:26;3.28;;;2.22;;
25950;SDS011;13748;52.240;6.002;2022-07-23T15:07:55;2.67;;;2.10;;
25950;SDS011;13748;52.240;6.002;2022-07-23T15:10:22;2.78;;;2.28;;
25950;SDS011;13748;52.240;6.002;2022-07-23T15:12:49;2.40;;;2.13;;
25950;SDS011;13748;52.240;6.002;2022-07-23T15:15:17;5.35;;;2.33;;
25950;SDS011;13748;52.240;6.002;2022-07-23T15:17:44;6.38;;;2.38;;
25950;SDS011;13748;52.240;6.002;2022-07-23T15:20:32;3.13;;;2.10;;
25950;SDS011;13748;52.240;6.002;2022-07-23T15:23:06;4.35;;;2.40;;
25950;SDS011;13748;52.240;6.002;2022-07-23T15:25:34;4.57;;;2.50;;
25950;SDS011;13748;52.240;6.002;2022-07-23T15:28:03;5.20;;;2.38;;
25950;SDS011;13748;52.240;6.002;2022-07-23T15:30:33;6.07;;;2.70;;
25950;SDS011;13748;52.240;6.002;2022-07-23T15:33:03;4.00;;;2.85;;
25950;SDS011;13748;52.240;6.002;2022-07-23T15:35:31;6.82;;;2.63;;
25950;SDS011;13748;52.240;6.002;2022-07-23T15:38:04;5.55;;;2.50;;
25950;SDS011;13748;52.240;6.002;2022-07-23T15:40:38;5.53;;;2.65;;
25950;SDS011;13748;52.240;6.002;2022-07-23T15:43:05;5.68;;;2.22;;
25950;SDS011;13748;52.240;6.002;2022-07-23T15:45:32;3.53;;;2.47;;